Flight Track Log - Related Links

Times and Time Zones

All times are in EDT time to prevent confusion due to time zone crossing. See the EJA951 flight status page for this flight to view local times or setup timezone preferences in your user account.

Time Position Orientation Groundspeed Altitude Reporting Facility
EDT Latitude Longitude Course Direction KTS MPH feet Rate Location/Type
Mon 11:00:39 AM 46.3681 -94.1056 158° South 245 282 3,500  Level Minneapolis Center
Mon 11:01:41 AM 46.3081 -94.0708 158° South 211 243 7,500 3,677 Climbing Minneapolis Center
Mon 11:02:43 AM 46.2425 -94.0219 153° Southeast 247 284 11,100 2,661 Climbing Minneapolis Center
Mon 11:03:45 AM 46.1692 -93.9503 146° Southeast 294 338 13,000 1,355 Climbing Minneapolis Center
Mon 11:04:47 AM 46.0900 -93.8769 147° Southeast 331 381 13,900 926 Climbing Minneapolis Center
Mon 11:06:01 AM 46.0025 -93.7967 147° Southeast 362 417 15,100 1,226 Climbing Minneapolis Center
Mon 11:07:04 AM 45.8953 -93.6983 147° Southeast 377 434 16,700 1,296 Climbing Minneapolis Center
Mon 11:08:06 AM 45.8047 -93.6147 147° Southeast 386 444 17,800 1,016 Climbing Minneapolis Center
Mon 11:09:08 AM 45.6931 -93.5117 147° Southeast 398 458 18,800 1,065 Climbing Minneapolis Center
Mon 11:10:10 AM 45.5986 -93.4275 148° Southeast 400 460 20,000 971 Climbing Minneapolis Center
Mon 11:11:24 AM 45.5033 -93.3397 147° Southeast 406 467 21,000 964 Climbing Minneapolis Center
Mon 11:12:27 AM 45.3864 -93.2333 147° Southeast 415 478 22,200 1,104 Climbing Minneapolis Center
Mon 11:13:29 AM 45.2878 -93.1464 148° Southeast 416 479 23,300 919 Climbing Minneapolis Center
Mon 11:14:31 AM 45.1861 -93.0561 148° Southeast 426 490 24,100 968 Climbing Minneapolis Center
Mon 11:15:33 AM 45.0622 -92.9447 148° Southeast 437 503 25,300 1,065 Climbing Minneapolis Center
Mon 11:16:35 AM 44.9575 -92.8514 148° Southeast 440 506 26,300 968 Climbing Minneapolis Center
Mon 11:17:37 AM 44.8514 -92.7589 148° Southeast 443 510 27,300 912 Climbing Minneapolis Center
Mon 11:18:40 AM 44.7447 -92.6647 148° Southeast 446 513 28,200 768 Climbing Minneapolis Center
Mon 11:19:42 AM 44.6369 -92.5711 148° Southeast 450 518 28,900 387 Climbing Minneapolis Center
Mon 11:20:44 AM 44.5256 -92.4756 149° Southeast 460 529 29,000 48 Climbing Minneapolis Center
Mon 11:21:46 AM 44.4108 -92.3764 148° Southeast 475 547 29,000  Level Minneapolis Center
Mon 11:22:48 AM 44.2694 -92.2572 149° Southeast 491 565 29,000  Level Minneapolis Center
Mon 11:23:50 AM 44.1525 -92.1569 148° Southeast 492 566 29,000  Level Minneapolis Center
Mon 11:24:52 AM 44.0356 -92.0575 149° Southeast 493 567 29,000  Level Minneapolis Center
Mon 11:25:54 AM 43.9192 -91.9581 148° Southeast 492 566 29,000  Level Minneapolis Center
Mon 11:26:56 AM 43.8031 -91.8597 149° Southeast 490 564 29,000  Level Minneapolis Center
Mon 11:27:58 AM 43.6697 -91.7456 148° Southeast 493 567 29,000  Level Minneapolis Center
Mon 11:29:00 AM 43.5544 -91.6494 149° Southeast 489 563 29,000  Level Minneapolis Center
Mon 11:30:02 AM 43.4406 -91.5558 149° Southeast 483 556 29,000  Level Minneapolis Center
Mon 11:31:04 AM 43.3292 -91.4622 149° Southeast 476 548 29,000  Level Minneapolis Center
Mon 11:31:58 AM 43.2175 -91.3728 150° Southeast 468 539 29,000  Level Chicago Center
Mon 11:33:00 AM 43.1081 -91.2814 149° Southeast 462 532 29,000 -484 Level Chicago Center
Mon 11:34:02 AM 42.9972 -91.1903 149° Southeast 463 533 28,000 -1,306 Descending Chicago Center
Mon 11:35:04 AM 42.8847 -91.1000 150° Southeast 467 537 26,300 -1,694 Descending Chicago Center
Mon 11:36:06 AM 42.7722 -91.0086 149° Southeast 470 541 24,500 -1,790 Descending Chicago Center
Mon 11:37:08 AM 42.6606 -90.9186 149° Southeast 468 539 22,600 -1,935 Descending Chicago Center
Mon 11:38:10 AM 42.5297 -90.8125 149° Southeast 460 529 20,500 -1,887 Descending Chicago Center
Mon 11:39:12 AM 42.4222 -90.7269 150° Southeast 453 521 18,700 -1,597 Descending Chicago Center
Mon 11:40:14 AM 42.3050 -90.6878 166° South 440 506 17,200 -1,645 Descending Chicago Center
Mon 11:41:16 AM 42.1878 -90.6628 171° South 431 496 15,300 -2,129 Descending Chicago Center
Mon 11:42:18 AM 42.0753 -90.6389 171° South 416 479 12,800 -2,081 Descending Chicago Center
Mon 11:43:20 AM 41.9475 -90.6119 171° South 391 450 11,000 -1,113 Descending Chicago Center
Mon 11:44:22 AM 41.8478 -90.6042 177° South 368 423 10,500 -629 Descending Chicago Center
Mon 11:45:24 AM 41.7628 -90.6094 183° South 305 351 9,700 -1,258 Descending Chicago Center
Mon 11:46:26 AM 41.6878 -90.6156 183° South 280 322 7,900 -1,790 Descending Chicago Center
Mon 11:47:28 AM 41.6161 -90.6144 179° South 265 305 6,000 -1,887 Descending Chicago Center
Mon 11:48:30 AM 41.5436 -90.6181 182° South 261 300 4,000 -1,500 Descending Chicago Center
Mon 11:49:32 AM 41.4833 -90.6233 184° South 239 275 2,900 -919 Descending Chicago Center
Mon 11:50:34 AM 41.4258 -90.6169 175° South 220 253 2,100 -774 Descending Chicago Center
Mon 11:52:00 AM 41.4333 -90.5000 169° South  Level FlightAware Approximate

Login

Don't have an account? Register now (free) for customized features, flight alerts, and more!